createdAt,value
2019-05-11T00:00:45.369Z,99209.75
2019-05-11T00:03:51.418Z,99219.41
2019-05-11T00:06:57.306Z,99220.30
2019-05-11T00:10:03.185Z,99219.09
2019-05-11T00:13:10.712Z,99216.72
2019-05-11T00:16:19.160Z,99218.80
2019-05-11T00:19:25.460Z,99227.06
2019-05-11T00:22:31.434Z,99222.89
2019-05-11T00:25:37.438Z,99222.25
2019-05-11T00:28:43.399Z,99220.99
2019-05-11T00:31:49.294Z,99226.06
2019-05-11T00:34:55.212Z,99222.12
2019-05-11T00:38:01.087Z,99220.14
2019-05-11T00:41:07.068Z,99221.52
2019-05-11T00:44:14.086Z,99220.69
2019-05-11T00:47:20.077Z,99223.33
2019-05-11T00:50:38.589Z,99222.75
2019-05-11T00:53:33.704Z,99223.12
2019-05-11T00:56:39.612Z,99225.44
2019-05-11T00:59:45.576Z,99227.39
2019-05-11T01:02:51.456Z,99229.77
2019-05-11T01:05:57.428Z,99228.24
2019-05-11T01:09:03.988Z,99225.86
2019-05-11T01:12:10.030Z,99238.63
2019-05-11T01:15:16.099Z,99228.86
2019-05-11T01:18:22.042Z,99233.70
2019-05-11T01:21:28.194Z,99237.69
2019-05-11T01:24:34.770Z,99237.69
2019-05-11T01:27:41.765Z,99245.11
2019-05-11T01:30:47.666Z,99242.47
2019-05-11T01:33:53.613Z,99240.44
2019-05-11T01:36:59.488Z,99234.91
2019-05-11T01:40:05.738Z,99237.44
2019-05-11T01:43:11.818Z,99237.44
2019-05-11T01:46:17.855Z,99231.09
2019-05-11T01:49:23.749Z,99236.59
2019-05-11T01:52:29.643Z,99236.23
2019-05-11T01:55:35.566Z,99247.89
2019-05-11T01:58:41.443Z,99249.93
2019-05-11T02:01:47.464Z,99249.93
2019-05-11T02:05:12.211Z,99247.81
2019-05-11T02:08:18.102Z,99245.72
2019-05-11T02:11:24.010Z,99249.35
2019-05-11T02:14:30.010Z,99252.38
2019-05-11T02:17:35.884Z,99253.86
2019-05-11T02:20:41.787Z,99260.66
2019-05-11T02:23:47.853Z,99250.56
2019-05-11T02:26:53.718Z,99250.56
2019-05-11T02:29:59.719Z,99253.37
2019-05-11T02:33:05.907Z,99262.65
2019-05-11T02:36:11.889Z,99262.65
2019-05-11T02:39:17.789Z,99267.42
2019-05-11T02:42:23.687Z,99273.83
2019-05-11T02:45:41.167Z,99276.08
2019-05-11T02:48:47.112Z,99272.45
2019-05-11T02:51:53.571Z,99272.45
2019-05-11T02:55:00.432Z,99274.83
2019-05-11T02:58:07.568Z,99273.27
2019-05-11T03:01:13.427Z,99273.27
2019-05-11T03:04:19.365Z,99286.48
2019-05-11T03:07:25.244Z,99288.75
2019-05-11T03:10:31.304Z,99293.25
2019-05-11T03:13:37.156Z,99301.42
2019-05-11T03:16:43.174Z,99303.72
2019-05-11T03:19:49.076Z,99304.11
2019-05-11T03:22:54.983Z,99305.48
2019-05-11T03:26:00.894Z,99309.84
2019-05-11T03:29:06.892Z,99310.59
2019-05-11T03:32:12.749Z,99307.19
2019-05-11T03:35:18.936Z,99312.02
2019-05-11T03:38:24.802Z,99317.30
2019-05-11T03:41:30.729Z,99313.08
2019-05-11T03:44:36.705Z,99319.28
2019-05-11T03:47:42.682Z,99327.56
2019-05-11T03:50:48.594Z,99331.89
2019-05-11T03:53:54.580Z,99329.92
2019-05-11T03:57:00.519Z,99333.05
2019-05-11T04:00:07.182Z,99324.47
2019-05-11T04:03:13.033Z,99324.47
2019-05-11T04:06:18.849Z,99330.24
2019-05-11T04:09:24.912Z,99331.67
2019-05-11T04:12:35.446Z,99340.30
2019-05-11T04:15:38.077Z,99347.27
2019-05-11T04:18:43.758Z,99349.69
2019-05-11T04:21:49.605Z,99341.73
2019-05-11T04:24:55.305Z,99349.92
2019-05-11T04:28:00.970Z,99353.30
2019-05-11T04:31:06.657Z,99356.42
2019-05-11T04:34:12.399Z,99356.42
2019-05-11T04:37:18.245Z,99359.28
2019-05-11T04:40:23.878Z,99369.33
2019-05-11T04:43:29.581Z,99369.77
2019-05-11T04:46:35.284Z,99367.59
2019-05-11T04:49:41.030Z,99365.32
2019-05-11T04:52:46.700Z,99365.55
2019-05-11T04:55:52.493Z,99366.05
2019-05-11T04:58:58.154Z,99374.08
2019-05-11T05:02:04.016Z,99378.06
2019-05-11T05:05:09.823Z,99378.38
2019-05-11T05:08:15.663Z,99375.65
2019-05-11T05:11:21.318Z,99383.59
2019-05-11T05:14:27.102Z,99383.36
2019-05-11T05:17:32.897Z,99383.49
2019-05-11T05:20:38.581Z,99396.16
2019-05-11T05:23:44.324Z,99392.88
2019-05-11T05:26:50.109Z,99399.37
2019-05-11T05:29:55.882Z,99401.64
2019-05-11T05:33:01.635Z,99400.10
2019-05-11T05:36:07.753Z,99401.50
2019-05-11T05:39:13.484Z,99409.02
2019-05-11T05:42:19.192Z,99415.83
2019-05-11T05:45:24.928Z,99409.62
2019-05-11T05:48:30.606Z,99409.33
2019-05-11T05:51:36.353Z,99399.94
2019-05-11T05:54:42.055Z,99416.88
2019-05-11T05:57:47.785Z,99413.27
2019-05-11T06:00:54.651Z,99419.64
2019-05-11T06:04:01.433Z,99421.66
2019-05-11T06:07:07.106Z,99420.90
2019-05-11T06:10:13.156Z,99427.20
2019-05-11T06:13:18.978Z,99429.07
2019-05-11T06:16:24.700Z,99432.38
2019-05-11T06:19:30.476Z,99443.56
2019-05-11T06:22:36.141Z,99441.06
2019-05-11T06:25:41.956Z,99449.81
2019-05-11T06:28:47.702Z,99450.99
2019-05-11T06:31:53.373Z,99454.72
2019-05-11T06:34:59.124Z,99460.08
2019-05-11T06:38:04.854Z,99454.77
2019-05-11T06:41:18.245Z,99446.48
2019-05-11T06:44:23.915Z,99447.31
2019-05-11T06:47:29.600Z,99453.88
2019-05-11T06:50:35.342Z,99452.35
2019-05-11T06:53:41.052Z,99456.50
2019-05-11T06:56:46.792Z,99458.88
2019-05-11T06:59:52.604Z,99460.80
2019-05-11T07:02:58.277Z,99452.97
2019-05-11T07:06:04.037Z,99455.63
2019-05-11T07:09:12.437Z,99463.41
2019-05-11T07:12:20.096Z,99451.28
2019-05-11T07:15:28.085Z,99466.95
2019-05-11T07:18:33.935Z,99467.14
2019-05-11T07:21:39.608Z,99464.23
2019-05-11T07:24:45.279Z,99463.09
2019-05-11T07:27:51.021Z,99464.83
2019-05-11T07:30:56.727Z,99465.34
2019-05-11T07:34:02.440Z,99462.70
2019-05-11T07:37:08.346Z,99474.67
2019-05-11T07:40:15.198Z,99471.27
2019-05-11T07:43:21.298Z,99476.87
2019-05-11T07:46:28.846Z,99478.77
2019-05-11T07:49:34.475Z,99482.39
2019-05-11T07:52:40.197Z,99478.88
2019-05-11T07:55:48.329Z,99489.09
2019-05-11T07:58:53.476Z,99489.89
2019-05-11T08:01:59.375Z,99487.33
2019-05-11T08:05:05.570Z,99486.32
2019-05-11T08:08:11.209Z,99476.11
2019-05-11T08:11:18.304Z,99471.39
2019-05-11T08:14:24.363Z,99475.14
2019-05-11T08:17:30.189Z,99464.47
2019-05-11T08:20:38.355Z,99468.58
2019-05-11T08:23:43.310Z,99478.11
2019-05-11T08:26:49.051Z,99476.38
2019-05-11T08:30:12.063Z,99471.77
2019-05-11T08:33:20.971Z,99472.52
2019-05-11T08:36:28.967Z,99478.05
2019-05-11T08:39:34.292Z,99464.41
2019-05-11T08:42:41.994Z,99465.50
2019-05-11T08:46:04.217Z,99473.61
2019-05-11T08:49:09.909Z,99479.78
2019-05-11T08:52:15.659Z,99472.77
2019-05-11T08:55:21.434Z,99470.97
2019-05-11T08:58:27.872Z,99472.33
2019-05-11T09:01:34.750Z,99457.14
2019-05-11T09:04:48.471Z,99453.88
2019-05-11T09:08:08.059Z,99463.91
2019-05-11T09:11:20.728Z,99458.55
2019-05-11T09:14:49.322Z,99464.48
2019-05-11T09:18:11.284Z,99468.36
2019-05-11T09:21:19.906Z,99471.59
2019-05-11T09:24:35.297Z,99464.44
2019-05-11T09:27:43.438Z,99457.47
2019-05-11T09:30:48.482Z,99458.02
2019-05-11T09:33:55.331Z,99466.95
2019-05-11T09:37:01.025Z,99468.81
2019-05-11T09:40:07.955Z,99460.73
2019-05-11T09:43:17.697Z,99457.10
2019-05-11T09:46:27.903Z,99456.52
2019-05-11T09:49:52.320Z,99452.25
2019-05-11T09:52:48.907Z,99456.70
2019-05-11T09:55:55.435Z,99450.62
2019-05-11T09:59:02.346Z,99442.58
2019-05-11T10:02:08.205Z,99440.62
2019-05-11T10:05:13.999Z,99442.26
2019-05-11T10:08:19.736Z,99437.83
2019-05-11T10:11:28.086Z,99431.58
2019-05-11T10:14:33.152Z,99429.43
2019-05-11T10:17:38.848Z,99427.08
2019-05-11T10:20:44.568Z,99424.59
2019-05-11T10:23:50.373Z,99425.65
2019-05-11T10:26:57.801Z,99432.22
2019-05-11T10:30:03.605Z,99427.06
2019-05-11T10:33:09.690Z,99425.73
2019-05-11T10:36:18.597Z,99416.02
2019-05-11T10:39:23.932Z,99423.01
2019-05-11T10:42:31.539Z,99424.88
2019-05-11T10:45:40.760Z,99419.23
2019-05-11T10:48:48.269Z,99434.08
2019-05-11T10:52:04.932Z,99417.88
2019-05-11T10:55:10.891Z,99418.58
2019-05-11T10:58:21.342Z,99410.95
2019-05-11T11:01:28.531Z,99413.78
2019-05-11T11:04:38.039Z,99418.89
2019-05-11T11:07:43.572Z,99423.39
2019-05-11T11:10:49.468Z,99423.80
2019-05-11T11:13:55.302Z,99426.13
2019-05-11T11:17:15.888Z,99417.70
2019-05-11T11:20:29.781Z,99419.78
2019-05-11T11:23:38.478Z,99418.56
2019-05-11T11:26:57.627Z,99412.47
2019-05-11T11:30:03.597Z,99401.93
2019-05-11T11:33:12.939Z,99396.61
2019-05-11T11:36:18.700Z,99392.08
2019-05-11T11:39:24.484Z,99394.28
2019-05-11T11:42:30.166Z,99392.34
2019-05-11T11:45:37.896Z,99389.56
2019-05-11T11:48:43.394Z,99386.66
2019-05-11T11:51:49.197Z,99389.64
2019-05-11T11:54:54.992Z,99384.35
2019-05-11T11:58:00.634Z,99377.56
2019-05-11T12:01:08.164Z,99373.91
2019-05-11T12:04:13.845Z,99372.52
2019-05-11T12:07:19.937Z,99376.55
2019-05-11T12:10:25.656Z,99381.63
2019-05-11T12:13:33.290Z,99372.48
2019-05-11T12:16:39.012Z,99366.94
2019-05-11T12:19:44.664Z,99369.14
2019-05-11T12:22:50.408Z,99365.52
2019-05-11T12:25:57.986Z,99357.89
2019-05-11T12:29:03.820Z,99351.97
2019-05-11T12:32:13.725Z,99349.91
2019-05-11T12:35:23.028Z,99349.34
2019-05-11T12:38:28.686Z,99347.31
2019-05-11T12:41:34.594Z,99349.81
2019-05-11T12:44:40.265Z,99347.49
2019-05-11T12:47:47.984Z,99339.64
2019-05-11T12:50:53.395Z,99337.19
2019-05-11T12:53:59.130Z,99330.48
2019-05-11T12:57:11.617Z,99331.24
2019-05-11T13:00:18.104Z,99329.55
2019-05-11T13:03:27.845Z,99329.61
2019-05-11T13:06:35.177Z,99321.77
2019-05-11T13:09:40.867Z,99322.14
2019-05-11T13:12:49.027Z,99323.95
2019-05-11T13:15:53.952Z,99321.98
2019-05-11T13:18:59.746Z,99323.36
2019-05-11T13:22:07.763Z,99319.83
2019-05-11T13:25:13.032Z,99318.45
2019-05-11T13:28:18.746Z,99308.37
2019-05-11T13:31:24.500Z,99311.48
2019-05-11T13:34:31.474Z,99304.16
2019-05-11T13:37:38.616Z,99302.05
2019-05-11T13:40:44.671Z,99302.58
2019-05-11T13:43:50.701Z,99297.88
2019-05-11T13:46:58.423Z,99306.66
2019-05-11T13:50:07.591Z,99307.52
2019-05-11T13:53:12.690Z,99306.98
2019-05-11T13:56:18.741Z,99304.06
2019-05-11T13:59:27.992Z,99307.36
2019-05-11T14:02:33.443Z,99304.14
2019-05-11T14:05:39.138Z,99307.89
2019-05-11T14:08:45.067Z,99299.53
2019-05-11T14:11:50.810Z,99304.64
2019-05-11T14:14:57.662Z,99300.63
2019-05-11T14:18:08.607Z,99302.80
2019-05-11T14:21:12.496Z,99300.59
2019-05-11T14:24:18.538Z,99306.55
2019-05-11T14:27:25.494Z,99301.73
2019-05-11T14:30:31.201Z,99293.05
2019-05-11T14:33:38.581Z,99297.13
2019-05-11T14:36:44.464Z,99296.14
2019-05-11T14:39:50.199Z,99300.87
2019-05-11T14:42:58.098Z,99298.77
2019-05-11T14:46:04.290Z,99298.84
2019-05-11T14:49:09.985Z,99306.60
2019-05-11T14:52:15.657Z,99305.73
2019-05-11T14:55:21.613Z,99304.20
2019-05-11T14:58:28.008Z,99299.69
2019-05-11T15:01:33.764Z,99308.53
2019-05-11T15:04:39.440Z,99311.18
2019-05-11T15:07:47.328Z,99310.91
2019-05-11T15:10:52.904Z,99312.27
2019-05-11T15:13:58.580Z,99317.40
2019-05-11T15:17:04.248Z,99315.87
2019-05-11T15:20:12.644Z,99319.05
2019-05-11T15:23:18.224Z,99313.23
2019-05-11T15:26:24.035Z,99312.25
2019-05-11T15:29:29.708Z,99309.13
2019-05-11T15:32:37.476Z,99314.11
2019-05-11T15:35:42.834Z,99309.05
2019-05-11T15:38:48.531Z,99311.21
2019-05-11T15:42:07.331Z,99309.11
2019-05-11T15:45:01.621Z,99306.25
2019-05-11T15:48:08.479Z,99315.38
2019-05-11T15:51:14.380Z,99312.75
2019-05-11T15:54:20.062Z,99311.88
2019-05-11T15:57:28.776Z,99311.98
2019-05-11T16:00:34.567Z,99314.66
2019-05-11T16:03:40.243Z,99319.80
2019-05-11T16:06:45.966Z,99323.60
2019-05-11T16:09:51.631Z,99323.05
2019-05-11T16:21:07.928Z,99330.16
2019-05-11T16:24:00.017Z,99331.38
2019-05-11T16:27:20.482Z,99330.00
2019-05-11T16:30:23.034Z,99334.56
2019-05-11T16:33:28.845Z,99332.99
2019-05-11T16:36:34.535Z,99333.11
2019-05-11T16:39:41.916Z,99338.39
2019-05-11T16:42:50.826Z,99334.73
2019-05-11T16:45:57.965Z,99342.98
2019-05-11T16:49:03.907Z,99339.88
2019-05-11T16:52:10.251Z,99346.14
2019-05-11T16:55:18.195Z,99349.16
2019-05-11T16:58:23.483Z,99349.55
2019-05-11T17:01:29.177Z,99353.33
2019-05-11T17:04:34.885Z,99359.95
2019-05-11T17:07:40.554Z,99365.25
2019-05-11T17:10:55.272Z,99366.70
2019-05-11T17:14:00.982Z,99370.80
2019-05-11T17:17:08.852Z,99369.98
2019-05-11T17:20:14.722Z,99374.86
2019-05-11T17:23:20.413Z,99381.13
2019-05-11T17:26:27.919Z,99379.16
2019-05-11T17:29:33.795Z,99385.42
2019-05-11T17:32:39.560Z,99379.50
2019-05-11T17:35:45.258Z,99392.08
2019-05-11T17:38:51.068Z,99397.27
2019-05-11T17:41:58.297Z,99401.38
2019-05-11T17:45:07.938Z,99403.64
2019-05-11T17:48:13.074Z,99403.80
2019-05-11T17:51:22.576Z,99404.02
2019-05-11T17:54:28.341Z,99409.61
2019-05-11T17:57:39.527Z,99408.28
2019-05-11T18:00:47.923Z,99417.40
2019-05-11T18:03:53.367Z,99423.61
2019-05-11T18:06:59.099Z,99431.64
2019-05-11T18:10:05.021Z,99437.05
2019-05-11T18:13:11.751Z,99444.02
2019-05-11T18:16:18.917Z,99447.92
2019-05-11T18:19:24.912Z,99446.02
2019-05-11T18:22:30.614Z,99454.06
2019-05-11T18:25:38.440Z,99462.41
2019-05-11T18:28:43.734Z,99466.82
2019-05-11T18:31:49.412Z,99467.66
2019-05-11T18:34:55.175Z,99470.55
2019-05-11T18:38:00.873Z,99476.59
2019-05-11T18:41:06.672Z,99481.54
2019-05-11T18:44:12.406Z,99489.00
2019-05-11T18:47:18.463Z,99485.36
2019-05-11T18:50:30.326Z,99497.28
2019-05-11T18:53:31.881Z,99501.27
2019-05-11T18:56:41.019Z,99509.73
2019-05-11T18:59:48.373Z,99514.19
2019-05-11T19:02:54.249Z,99516.59
2019-05-11T19:05:59.935Z,99524.16
2019-05-11T19:09:07.863Z,99538.95
2019-05-11T19:12:13.528Z,99545.51
2019-05-11T19:15:23.079Z,99535.64
2019-05-11T19:18:28.916Z,99540.00
2019-05-11T19:21:34.559Z,99544.77
2019-05-11T19:24:44.950Z,99541.02
2019-05-11T19:27:51.135Z,99545.08
2019-05-11T19:30:59.105Z,99553.47
2019-05-11T19:34:04.354Z,99545.26
2019-05-11T19:37:10.042Z,99545.41
2019-05-11T19:40:16.644Z,99553.86
2019-05-11T19:43:22.452Z,99550.28
2019-05-11T19:46:28.230Z,99556.34
2019-05-11T19:49:47.854Z,99549.63
2019-05-11T19:52:55.203Z,99548.23
2019-05-11T19:59:50.857Z,99553.07
2019-05-11T20:03:01.142Z,99544.99
2019-05-11T20:06:08.751Z,99551.75
2019-05-11T20:09:15.999Z,99551.07
2019-05-11T20:12:21.686Z,99555.73
2019-05-11T20:15:29.543Z,99559.58
2019-05-11T20:18:35.269Z,99557.45
2019-05-11T20:21:43.091Z,99556.51
2019-05-11T20:25:04.051Z,99553.86
2019-05-11T20:28:14.010Z,99550.13
2019-05-11T20:31:21.041Z,99548.89
2019-05-11T20:34:28.780Z,99552.04
2019-05-11T20:37:34.073Z,99547.02
2019-05-11T20:40:39.880Z,99542.66
2019-05-11T20:43:45.602Z,99539.94
2019-05-11T20:46:51.288Z,99548.74
2019-05-11T20:49:58.711Z,99546.50
2019-05-11T20:53:04.662Z,99543.02
2019-05-11T20:56:10.337Z,99552.48
2019-05-11T20:59:18.141Z,99545.72
2019-05-11T21:02:23.463Z,99545.02
2019-05-11T21:05:29.166Z,99544.52
2019-05-11T21:08:34.849Z,99538.34
2019-05-11T21:11:40.614Z,99544.45
2019-05-11T21:14:48.455Z,99548.41
2019-05-11T21:17:53.669Z,99548.73
2019-05-11T21:20:59.393Z,99554.45
2019-05-11T21:24:05.082Z,99546.19
2019-05-11T21:27:10.754Z,99554.76
2019-05-11T21:30:18.444Z,99557.59
2019-05-11T21:33:24.137Z,99558.83
2019-05-11T21:36:29.823Z,99554.17
2019-05-11T21:39:37.800Z,99562.39
2019-05-11T21:42:43.209Z,99554.86
2019-05-11T21:45:48.947Z,99560.73
2019-05-11T21:48:55.647Z,99567.64
2019-05-11T21:52:04.348Z,99577.02
2019-05-11T21:55:09.790Z,99572.25
2019-05-11T21:58:18.087Z,99571.61
2019-05-11T22:01:23.246Z,99582.02
2019-05-11T22:04:28.946Z,99597.33
2019-05-11T22:07:34.700Z,99601.36
2019-05-11T22:10:41.608Z,99602.27
2019-05-11T22:13:48.399Z,99614.35
2019-05-11T22:16:54.245Z,99603.98
2019-05-11T22:20:00.096Z,99607.33
2019-05-11T22:23:08.959Z,99617.48
2019-05-11T22:26:14.799Z,99616.36
2019-05-11T22:29:20.512Z,99619.87
2019-05-11T22:32:28.531Z,99620.53
2019-05-11T22:35:34.548Z,99617.94
2019-05-11T22:38:40.351Z,99621.92
2019-05-11T22:41:48.173Z,99620.44
2019-05-11T22:44:53.522Z,99618.86
2019-05-11T22:47:59.256Z,99628.16
2019-05-11T22:51:05.027Z,99625.71
2019-05-11T22:54:12.293Z,99627.95
2019-05-11T22:57:18.105Z,99619.08
2019-05-11T23:00:41.580Z,99614.22
2019-05-11T23:03:47.628Z,99616.37
2019-05-11T23:06:53.444Z,99614.92
2019-05-11T23:10:00.596Z,99615.47
2019-05-11T23:13:08.263Z,99611.41
2019-05-11T23:16:13.979Z,99615.84
2019-05-11T23:19:19.732Z,99625.41
2019-05-11T23:22:26.966Z,99627.06
2019-05-11T23:25:33.355Z,99622.84
2019-05-11T23:28:39.315Z,99620.16
2019-05-11T23:31:44.957Z,99612.36
2019-05-11T23:34:50.635Z,99600.96
2019-05-11T23:37:58.128Z,99600.11
2019-05-11T23:41:04.091Z,99599.47
2019-05-11T23:44:09.903Z,99604.45
2019-05-11T23:47:15.560Z,99601.61
2019-05-11T23:50:21.692Z,99598.44
2019-05-11T23:53:28.218Z,99596.73
2019-05-11T23:56:34.087Z,99598.34
2019-05-11T23:59:39.946Z,99588.00
